COO weather

Cadjehoun Airport
Cotonou, Atlantique, Benin

Public forecast

Using degrees Celsius for public forecast. Weather courtesy of forecast.io.

Current aviation weather report (METAR) for Cadjehoun Airport

Retrieved 2019/11/14 12:00 UTC (44 minutes ago):

DBBB 141200Z 05004KT 360V100 9999 FEW013 30/23 Q1009 NOSIG

Aviation forecast (TAF) for Cadjehoun Airport

Retrieved 2019/11/14 12:09 UTC (35 minutes ago):

TAF DBBB 141100Z 1412/1518 22010KT 9999 SCT012 PROB30 TEMPO 1413/1419 BKN012 FEW023CB